sensor_id;sensor_type;location;lat;lon;timestamp;pressure;altitude;pressure_sealevel;temperature;humidity
10712;BME280;5407;51.234;6.804;2023-11-21T00:06:57;100508.72;;;11.47;100.00
10712;BME280;5407;51.234;6.804;2023-11-21T00:15:03;100513.94;;;11.70;100.00
10712;BME280;5407;51.234;6.804;2023-11-21T00:17:42;100516.91;;;11.65;100.00
10712;BME280;5407;51.234;6.804;2023-11-21T00:20:17;100521.88;;;11.33;100.00
10712;BME280;5407;51.234;6.804;2023-11-21T00:28:17;100528.78;;;11.30;100.00
10712;BME280;5407;51.234;6.804;2023-11-21T00:30:51;100529.53;;;11.46;100.00
10712;BME280;5407;51.234;6.804;2023-11-21T00:33:21;100540.53;;;11.38;100.00
10712;BME280;5407;51.234;6.804;2023-11-21T00:36:00;100533.09;;;11.35;100.00
10712;BME280;5407;51.234;6.804;2023-11-21T00:38:34;100538.88;;;11.33;100.00
10712;BME280;5407;51.234;6.804;2023-11-21T00:41:05;100533.38;;;11.45;100.00
10712;BME280;5407;51.234;6.804;2023-11-21T00:43:46;100532.44;;;11.38;100.00
10712;BME280;5407;51.234;6.804;2023-11-21T00:46:23;100541.56;;;11.49;100.00
10712;BME280;5407;51.234;6.804;2023-11-21T00:48:53;100537.63;;;11.31;100.00
10712;BME280;5407;51.234;6.804;2023-11-21T00:51:25;100537.13;;;11.41;100.00
10712;BME280;5407;51.234;6.804;2023-11-21T00:53:55;100541.47;;;11.30;100.00
10712;BME280;5407;51.234;6.804;2023-11-21T00:56:23;100539.22;;;11.32;100.00
10712;BME280;5407;51.234;6.804;2023-11-21T00:58:57;100537.03;;;11.37;100.00
10712;BME280;5407;51.234;6.804;2023-11-21T01:01:31;100541.91;;;11.47;100.00
10712;BME280;5407;51.234;6.804;2023-11-21T01:04:05;100547.41;;;11.51;100.00
10712;BME280;5407;51.234;6.804;2023-11-21T01:06:42;100549.47;;;11.72;100.00
10712;BME280;5407;51.234;6.804;2023-11-21T01:09:16;100538.00;;;11.45;100.00
10712;BME280;5407;51.234;6.804;2023-11-21T01:11:45;100544.53;;;11.28;100.00
10712;BME280;5407;51.234;6.804;2023-11-21T01:14:13;100542.09;;;11.23;100.00
10712;BME280;5407;51.234;6.804;2023-11-21T01:16:41;100548.63;;;11.22;100.00
10712;BME280;5407;51.234;6.804;2023-11-21T01:19:08;100553.41;;;11.13;100.00
10712;BME280;5407;51.234;6.804;2023-11-21T01:21:35;100557.16;;;11.09;100.00
10712;BME280;5407;51.234;6.804;2023-11-21T01:24:03;100557.22;;;11.12;100.00
10712;BME280;5407;51.234;6.804;2023-11-21T01:26:34;100563.59;;;11.20;100.00
10712;BME280;5407;51.234;6.804;2023-11-21T01:29:01;100564.56;;;11.27;100.00
10712;BME280;5407;51.234;6.804;2023-11-21T01:31:28;100566.91;;;11.29;100.00
10712;BME280;5407;51.234;6.804;2023-11-21T01:33:56;100568.13;;;11.16;100.00
10712;BME280;5407;51.234;6.804;2023-11-21T01:36:23;100564.81;;;11.07;100.00
10712;BME280;5407;51.234;6.804;2023-11-21T01:38:50;100565.94;;;11.06;100.00
10712;BME280;5407;51.234;6.804;2023-11-21T01:41:17;100575.19;;;11.05;100.00
10712;BME280;5407;51.234;6.804;2023-11-21T01:43:47;100574.22;;;11.13;100.00
10712;BME280;5407;51.234;6.804;2023-11-21T01:46:15;100571.69;;;11.04;100.00
10712;BME280;5407;51.234;6.804;2023-11-21T01:48:42;100581.72;;;11.04;100.00
10712;BME280;5407;51.234;6.804;2023-11-21T01:51:10;100574.91;;;11.10;100.00
10712;BME280;5407;51.234;6.804;2023-11-21T01:53:39;100579.53;;;11.09;100.00
10712;BME280;5407;51.234;6.804;2023-11-21T01:56:08;100571.97;;;11.15;100.00
10712;BME280;5407;51.234;6.804;2023-11-21T01:58:41;100573.69;;;11.23;100.00
10712;BME280;5407;51.234;6.804;2023-11-21T02:01:32;100581.06;;;11.38;100.00
10712;BME280;5407;51.234;6.804;2023-11-21T02:04:07;100576.84;;;11.25;100.00
10712;BME280;5407;51.234;6.804;2023-11-21T02:06:37;100580.84;;;11.15;100.00
10712;BME280;5407;51.234;6.804;2023-11-21T02:09:06;100590.13;;;11.02;100.00
10712;BME280;5407;51.234;6.804;2023-11-21T02:11:47;100589.53;;;11.09;100.00
10712;BME280;5407;51.234;6.804;2023-11-21T02:14:27;100585.47;;;11.15;100.00
10712;BME280;5407;51.234;6.804;2023-11-21T02:17:03;100590.41;;;11.13;100.00
10712;BME280;5407;51.234;6.804;2023-11-21T02:19:35;100587.91;;;11.20;100.00
10712;BME280;5407;51.234;6.804;2023-11-21T02:22:07;100591.03;;;11.22;100.00
10712;BME280;5407;51.234;6.804;2023-11-21T02:24:46;100591.81;;;11.07;100.00
10712;BME280;5407;51.234;6.804;2023-11-21T02:27:19;100599.22;;;11.10;100.00
10712;BME280;5407;51.234;6.804;2023-11-21T02:29:51;100610.72;;;11.07;100.00
10712;BME280;5407;51.234;6.804;2023-11-21T02:32:29;100602.09;;;11.17;100.00
10712;BME280;5407;51.234;6.804;2023-11-21T02:35:03;100604.50;;;11.06;100.00
10712;BME280;5407;51.234;6.804;2023-11-21T02:37:39;100614.47;;;11.18;100.00
10712;BME280;5407;51.234;6.804;2023-11-21T02:40:16;100612.78;;;11.13;100.00
10712;BME280;5407;51.234;6.804;2023-11-21T02:42:46;100610.63;;;11.19;100.00
10712;BME280;5407;51.234;6.804;2023-11-21T02:45:15;100610.63;;;11.19;100.00
10712;BME280;5407;51.234;6.804;2023-11-21T02:47:42;100612.22;;;11.35;100.00
10712;BME280;5407;51.234;6.804;2023-11-21T02:50:14;100606.66;;;11.44;100.00
10712;BME280;5407;51.234;6.804;2023-11-21T02:52:45;100611.19;;;11.40;100.00
10712;BME280;5407;51.234;6.804;2023-11-21T02:55:15;100613.09;;;11.55;100.00
10712;BME280;5407;51.234;6.804;2023-11-21T02:57:50;100616.94;;;11.54;100.00
10712;BME280;5407;51.234;6.804;2023-11-21T03:00:22;100613.69;;;11.48;99.88
10712;BME280;5407;51.234;6.804;2023-11-21T03:02:55;100625.75;;;11.51;100.00
10712;BME280;5407;51.234;6.804;2023-11-21T03:05:23;100621.22;;;11.55;100.00
10712;BME280;5407;51.234;6.804;2023-11-21T03:07:52;100627.50;;;11.59;100.00
10712;BME280;5407;51.234;6.804;2023-11-21T03:10:24;100629.41;;;11.58;100.00
10712;BME280;5407;51.234;6.804;2023-11-21T03:12:51;100634.91;;;11.62;100.00
10712;BME280;5407;51.234;6.804;2023-11-21T03:15:27;100622.44;;;11.57;100.00
10712;BME280;5407;51.234;6.804;2023-11-21T03:17:55;100623.81;;;11.51;100.00
10712;BME280;5407;51.234;6.804;2023-11-21T03:20:24;100625.41;;;11.37;100.00
10712;BME280;5407;51.234;6.804;2023-11-21T03:22:55;100622.59;;;11.33;100.00
10712;BME280;5407;51.234;6.804;2023-11-21T03:25:29;100622.47;;;11.30;100.00
10712;BME280;5407;51.234;6.804;2023-11-21T03:28:00;100630.84;;;11.25;100.00
10712;BME280;5407;51.234;6.804;2023-11-21T03:30:28;100633.66;;;11.28;100.00
10712;BME280;5407;51.234;6.804;2023-11-21T03:32:56;100641.94;;;11.35;100.00
10712;BME280;5407;51.234;6.804;2023-11-21T03:35:22;100643.59;;;11.40;100.00
10712;BME280;5407;51.234;6.804;2023-11-21T03:37:50;100649.69;;;11.37;100.00
10712;BME280;5407;51.234;6.804;2023-11-21T03:40:17;100655.44;;;11.35;100.00
10712;BME280;5407;51.234;6.804;2023-11-21T03:42:45;100654.63;;;11.19;100.00
10712;BME280;5407;51.234;6.804;2023-11-21T03:45:12;100658.34;;;11.15;100.00
10712;BME280;5407;51.234;6.804;2023-11-21T03:47:41;100661.25;;;11.22;100.00
10712;BME280;5407;51.234;6.804;2023-11-21T03:50:08;100667.47;;;11.10;100.00
10712;BME280;5407;51.234;6.804;2023-11-21T03:52:35;100666.91;;;11.17;100.00
10712;BME280;5407;51.234;6.804;2023-11-21T03:55:03;100671.34;;;11.25;100.00
10712;BME280;5407;51.234;6.804;2023-11-21T03:57:30;100676.88;;;11.44;100.00
10712;BME280;5407;51.234;6.804;2023-11-21T03:59:58;100685.44;;;11.46;100.00
10712;BME280;5407;51.234;6.804;2023-11-21T04:02:25;100678.75;;;11.28;100.00
10712;BME280;5407;51.234;6.804;2023-11-21T04:04:53;100681.91;;;11.30;100.00
10712;BME280;5407;51.234;6.804;2023-11-21T04:07:20;100680.84;;;11.19;100.00
10712;BME280;5407;51.234;6.804;2023-11-21T04:09:47;100674.56;;;11.15;100.00
10712;BME280;5407;51.234;6.804;2023-11-21T04:12:14;100682.31;;;11.16;100.00
10712;BME280;5407;51.234;6.804;2023-11-21T04:14:41;100682.31;;;11.16;100.00
10712;BME280;5407;51.234;6.804;2023-11-21T04:17:09;100683.53;;;11.19;100.00
10712;BME280;5407;51.234;6.804;2023-11-21T04:19:36;100682.97;;;11.13;100.00
10712;BME280;5407;51.234;6.804;2023-11-21T04:22:04;100687.41;;;11.06;100.00
10712;BME280;5407;51.234;6.804;2023-11-21T04:24:31;100682.53;;;10.96;100.00
10712;BME280;5407;51.234;6.804;2023-11-21T04:26:58;100683.22;;;10.93;100.00
10712;BME280;5407;51.234;6.804;2023-11-21T04:29:24;100685.84;;;11.05;100.00
10712;BME280;5407;51.234;6.804;2023-11-21T04:31:52;100687.16;;;11.11;100.00
10712;BME280;5407;51.234;6.804;2023-11-21T04:34:20;100684.91;;;11.13;100.00
10712;BME280;5407;51.234;6.804;2023-11-21T04:36:47;100682.84;;;11.22;100.00
10712;BME280;5407;51.234;6.804;2023-11-21T04:39:14;100682.78;;;11.34;100.00
10712;BME280;5407;51.234;6.804;2023-11-21T04:41:41;100689.66;;;11.31;100.00
10712;BME280;5407;51.234;6.804;2023-11-21T04:44:08;100681.63;;;11.35;100.00
10712;BME280;5407;51.234;6.804;2023-11-21T04:46:35;100688.38;;;11.41;100.00
10712;BME280;5407;51.234;6.804;2023-11-21T04:49:02;100692.81;;;11.33;100.00
10712;BME280;5407;51.234;6.804;2023-11-21T04:51:30;100695.41;;;11.30;100.00
10712;BME280;5407;51.234;6.804;2023-11-21T04:53:57;100706.16;;;11.42;100.00
10712;BME280;5407;51.234;6.804;2023-11-21T04:56:24;100701.34;;;11.35;100.00
10712;BME280;5407;51.234;6.804;2023-11-21T04:58:53;100707.34;;;11.29;100.00
10712;BME280;5407;51.234;6.804;2023-11-21T05:01:27;100712.91;;;11.36;100.00
10712;BME280;5407;51.234;6.804;2023-11-21T05:04:09;100707.44;;;11.32;100.00
10712;BME280;5407;51.234;6.804;2023-11-21T05:06:40;100707.53;;;11.36;100.00
10712;BME280;5407;51.234;6.804;2023-11-21T05:09:10;100719.44;;;11.35;100.00
10712;BME280;5407;51.234;6.804;2023-11-21T05:11:42;100714.53;;;11.37;100.00
10712;BME280;5407;51.234;6.804;2023-11-21T05:14:26;100721.50;;;11.38;100.00
10712;BME280;5407;51.234;6.804;2023-11-21T05:17:14;100732.56;;;11.21;100.00
10712;BME280;5407;51.234;6.804;2023-11-21T05:19:43;100728.78;;;11.37;100.00
10712;BME280;5407;51.234;6.804;2023-11-21T05:22:20;100728.03;;;11.37;100.00
10712;BME280;5407;51.234;6.804;2023-11-21T05:24:56;100734.06;;;11.46;100.00
10712;BME280;5407;51.234;6.804;2023-11-21T05:27:29;100738.31;;;11.47;100.00
10712;BME280;5407;51.234;6.804;2023-11-21T05:30:02;100740.16;;;11.43;100.00
10712;BME280;5407;51.234;6.804;2023-11-21T05:32:31;100748.00;;;11.48;100.00
10712;BME280;5407;51.234;6.804;2023-11-21T05:34:59;100743.97;;;11.42;100.00
10712;BME280;5407;51.234;6.804;2023-11-21T05:37:28;100744.16;;;11.49;100.00
10712;BME280;5407;51.234;6.804;2023-11-21T05:39:55;100751.41;;;11.33;100.00
10712;BME280;5407;51.234;6.804;2023-11-21T05:42:23;100750.94;;;11.15;100.00
10712;BME280;5407;51.234;6.804;2023-11-21T05:44:50;100751.84;;;11.35;100.00
10712;BME280;5407;51.234;6.804;2023-11-21T05:47:17;100760.13;;;11.26;100.00
10712;BME280;5407;51.234;6.804;2023-11-21T05:49:45;100765.56;;;11.14;100.00
10712;BME280;5407;51.234;6.804;2023-11-21T05:52:15;100773.72;;;11.30;100.00
10712;BME280;5407;51.234;6.804;2023-11-21T05:54:44;100774.22;;;11.20;100.00
10712;BME280;5407;51.234;6.804;2023-11-21T05:57:11;100776.66;;;11.25;100.00
10712;BME280;5407;51.234;6.804;2023-11-21T05:59:38;100775.56;;;11.14;100.00
10712;BME280;5407;51.234;6.804;2023-11-21T06:02:05;100773.91;;;11.09;100.00
10712;BME280;5407;51.234;6.804;2023-11-21T06:04:33;100788.03;;;11.30;100.00
10712;BME280;5407;51.234;6.804;2023-11-21T06:07:00;100783.13;;;11.36;100.00
10712;BME280;5407;51.234;6.804;2023-11-21T06:09:28;100791.41;;;11.27;100.00
10712;BME280;5407;51.234;6.804;2023-11-21T06:11:57;100793.50;;;11.34;100.00
10712;BME280;5407;51.234;6.804;2023-11-21T06:14:24;100795.44;;;11.33;100.00
10712;BME280;5407;51.234;6.804;2023-11-21T06:16:51;100798.72;;;11.27;100.00
10712;BME280;5407;51.234;6.804;2023-11-21T06:19:18;100801.91;;;11.17;100.00
10712;BME280;5407;51.234;6.804;2023-11-21T06:21:46;100803.50;;;11.06;100.00
10712;BME280;5407;51.234;6.804;2023-11-21T06:24:13;100810.69;;;11.14;100.00
10712;BME280;5407;51.234;6.804;2023-11-21T06:26:42;100814.06;;;11.11;100.00
10712;BME280;5407;51.234;6.804;2023-11-21T06:29:11;100813.59;;;11.21;100.00
10712;BME280;5407;51.234;6.804;2023-11-21T06:31:39;100815.34;;;11.29;100.00
10712;BME280;5407;51.234;6.804;2023-11-21T06:34:07;100815.44;;;11.05;100.00
10712;BME280;5407;51.234;6.804;2023-11-21T06:36:36;100817.41;;;11.20;100.00
10712;BME280;5407;51.234;6.804;2023-11-21T06:39:03;100823.09;;;11.03;100.00
10712;BME280;5407;51.234;6.804;2023-11-21T06:41:33;100827.53;;;11.23;100.00
10712;BME280;5407;51.234;6.804;2023-11-21T06:44:00;100832.09;;;10.95;100.00
10712;BME280;5407;51.234;6.804;2023-11-21T06:46:29;100834.47;;;10.84;100.00
10712;BME280;5407;51.234;6.804;2023-11-21T06:48:57;100841.28;;;11.06;100.00
10712;BME280;5407;51.234;6.804;2023-11-21T06:51:31;100844.91;;;10.86;100.00
10712;BME280;5407;51.234;6.804;2023-11-21T06:54:00;100843.69;;;10.71;100.00
10712;BME280;5407;51.234;6.804;2023-11-21T06:56:28;100853.44;;;10.88;100.00
10712;BME280;5407;51.234;6.804;2023-11-21T06:58:56;100858.41;;;10.98;100.00
10712;BME280;5407;51.234;6.804;2023-11-21T07:01:23;100864.16;;;10.84;100.00
10712;BME280;5407;51.234;6.804;2023-11-21T07:03:52;100860.66;;;10.96;100.00
10712;BME280;5407;51.234;6.804;2023-11-21T07:06:19;100867.63;;;10.97;100.00
10712;BME280;5407;51.234;6.804;2023-11-21T07:08:46;100864.91;;;10.85;100.00
10712;BME280;5407;51.234;6.804;2023-11-21T07:11:13;100874.13;;;10.84;100.00
10712;BME280;5407;51.234;6.804;2023-11-21T07:13:40;100870.78;;;10.75;100.00
10712;BME280;5407;51.234;6.804;2023-11-21T07:16:07;100877.84;;;10.91;100.00
10712;BME280;5407;51.234;6.804;2023-11-21T07:18:36;100891.22;;;10.88;100.00
10712;BME280;5407;51.234;6.804;2023-11-21T07:21:04;100887.63;;;10.84;100.00
10712;BME280;5407;51.234;6.804;2023-11-21T07:23:31;100899.69;;;10.86;100.00
10712;BME280;5407;51.234;6.804;2023-11-21T07:26:00;100904.50;;;11.05;100.00
10712;BME280;5407;51.234;6.804;2023-11-21T07:28:34;100908.56;;;10.99;100.00
10712;BME280;5407;51.234;6.804;2023-11-21T07:31:02;100908.69;;;11.14;100.00
10712;BME280;5407;51.234;6.804;2023-11-21T07:33:31;100911.09;;;11.43;100.00
10712;BME280;5407;51.234;6.804;2023-11-21T07:35:58;100908.28;;;11.52;100.00
10712;BME280;5407;51.234;6.804;2023-11-21T07:38:26;100903.53;;;11.61;100.00
10712;BME280;5407;51.234;6.804;2023-11-21T07:40:53;100902.69;;;11.84;100.00
10712;BME280;5407;51.234;6.804;2023-11-21T07:43:20;100903.75;;;11.95;100.00
10712;BME280;5407;51.234;6.804;2023-11-21T07:45:47;100904.56;;;11.95;100.00
10712;BME280;5407;51.234;6.804;2023-11-21T07:48:14;100900.97;;;11.91;100.00
10712;BME280;5407;51.234;6.804;2023-11-21T07:50:41;100912.75;;;11.99;100.00
10712;BME280;5407;51.234;6.804;2023-11-21T07:53:08;100918.19;;;12.14;99.98
10712;BME280;5407;51.234;6.804;2023-11-21T07:55:36;100916.41;;;12.34;97.43
10712;BME280;5407;51.234;6.804;2023-11-21T07:58:03;100923.97;;;12.28;96.87
10712;BME280;5407;51.234;6.804;2023-11-21T08:00:30;100912.69;;;12.38;96.49
10712;BME280;5407;51.234;6.804;2023-11-21T08:02:57;100933.22;;;12.27;96.41
10712;BME280;5407;51.234;6.804;2023-11-21T08:05:24;100934.81;;;12.28;96.75
10712;BME280;5407;51.234;6.804;2023-11-21T08:07:51;100943.66;;;12.41;95.86
10712;BME280;5407;51.234;6.804;2023-11-21T08:10:18;100944.88;;;12.43;95.14
10712;BME280;5407;51.234;6.804;2023-11-21T08:12:48;100949.78;;;12.10;94.89
10712;BME280;5407;51.234;6.804;2023-11-21T08:15:17;100959.56;;;11.87;97.43
10712;BME280;5407;51.234;6.804;2023-11-21T08:17:44;100963.53;;;11.54;99.25
10712;BME280;5407;51.234;6.804;2023-11-21T08:20:11;100969.28;;;11.64;98.91
10712;BME280;5407;51.234;6.804;2023-11-21T08:22:41;100977.63;;;11.60;99.40
10712;BME280;5407;51.234;6.804;2023-11-21T08:25:09;100980.66;;;11.58;99.33
10712;BME280;5407;51.234;6.804;2023-11-21T08:27:36;100981.66;;;11.65;99.60
10712;BME280;5407;51.234;6.804;2023-11-21T08:30:05;100990.69;;;11.58;99.62
10712;BME280;5407;51.234;6.804;2023-11-21T08:32:32;100994.25;;;11.73;99.42
10712;BME280;5407;51.234;6.804;2023-11-21T08:35:00;100991.09;;;11.71;98.80
10712;BME280;5407;51.234;6.804;2023-11-21T08:37:27;100990.44;;;11.74;99.77
10712;BME280;5407;51.234;6.804;2023-11-21T08:39:57;100994.53;;;11.57;100.00
10712;BME280;5407;51.234;6.804;2023-11-21T08:42:25;100991.91;;;11.72;99.89
10712;BME280;5407;51.234;6.804;2023-11-21T08:44:55;100995.41;;;11.61;100.00
10712;BME280;5407;51.234;6.804;2023-11-21T08:47:24;101003.53;;;11.61;100.00
10712;BME280;5407;51.234;6.804;2023-11-21T08:49:51;101006.66;;;11.51;100.00
10712;BME280;5407;51.234;6.804;2023-11-21T08:52:19;101010.47;;;11.73;100.00
10712;BME280;5407;51.234;6.804;2023-11-21T08:54:48;101007.00;;;11.73;99.48
10712;BME280;5407;51.234;6.804;2023-11-21T08:57:21;101008.69;;;11.54;100.00
10712;BME280;5407;51.234;6.804;2023-11-21T08:59:48;101016.47;;;11.55;100.00
10712;BME280;5407;51.234;6.804;2023-11-21T09:02:21;101018.25;;;11.75;100.00
10712;BME280;5407;51.234;6.804;2023-11-21T09:04:50;101020.59;;;11.76;99.40
10712;BME280;5407;51.234;6.804;2023-11-21T09:07:18;101019.25;;;11.82;99.11
10712;BME280;5407;51.234;6.804;2023-11-21T09:09:46;101026.25;;;11.83;98.91
10712;BME280;5407;51.234;6.804;2023-11-21T09:12:13;101020.16;;;11.86;98.91
10712;BME280;5407;51.234;6.804;2023-11-21T09:14:40;101028.47;;;11.81;98.67
10712;BME280;5407;51.234;6.804;2023-11-21T09:17:07;101028.38;;;11.78;99.55
10712;BME280;5407;51.234;6.804;2023-11-21T09:19:36;101030.97;;;11.86;99.48
10712;BME280;5407;51.234;6.804;2023-11-21T09:22:04;101042.84;;;12.09;98.47
10712;BME280;5407;51.234;6.804;2023-11-21T09:24:32;101038.00;;;12.03;98.05
10712;BME280;5407;51.234;6.804;2023-11-21T09:26:59;101036.78;;;12.00;97.64
10712;BME280;5407;51.234;6.804;2023-11-21T09:29:26;101047.19;;;11.86;99.81
10712;BME280;5407;51.234;6.804;2023-11-21T09:31:54;101050.34;;;11.88;99.20
10712;BME280;5407;51.234;6.804;2023-11-21T09:34:24;101047.31;;;11.66;100.00
10712;BME280;5407;51.234;6.804;2023-11-21T09:36:51;101061.38;;;11.71;100.00
10712;BME280;5407;51.234;6.804;2023-11-21T09:39:20;101069.03;;;11.69;100.00
10712;BME280;5407;51.234;6.804;2023-11-21T09:41:50;101067.00;;;11.66;100.00
10712;BME280;5407;51.234;6.804;2023-11-21T09:44:31;101067.25;;;11.62;100.00
10712;BME280;5407;51.234;6.804;2023-11-21T09:47:00;101070.19;;;11.57;100.00
10712;BME280;5407;51.234;6.804;2023-11-21T09:49:28;101070.97;;;11.69;100.00
10712;BME280;5407;51.234;6.804;2023-11-21T09:52:01;101075.34;;;11.85;99.20
10712;BME280;5407;51.234;6.804;2023-11-21T09:54:32;101073.44;;;11.74;98.58
10712;BME280;5407;51.234;6.804;2023-11-21T09:56:59;101074.44;;;11.69;99.87
10712;BME280;5407;51.234;6.804;2023-11-21T09:59:30;101075.81;;;11.87;98.88
10712;BME280;5407;51.234;6.804;2023-11-21T10:01:58;101080.50;;;12.02;98.38
10712;BME280;5407;51.234;6.804;2023-11-21T10:04:25;101074.84;;;12.07;98.30
10712;BME280;5407;51.234;6.804;2023-11-21T10:06:53;101083.88;;;11.99;98.13
10712;BME280;5407;51.234;6.804;2023-11-21T10:09:21;101080.88;;;11.77;99.33
10712;BME280;5407;51.234;6.804;2023-11-21T10:11:50;101078.72;;;11.94;99.03
10712;BME280;5407;51.234;6.804;2023-11-21T10:14:19;101083.69;;;11.68;100.00
10712;BME280;5407;51.234;6.804;2023-11-21T10:16:51;101082.78;;;11.88;99.45
10712;BME280;5407;51.234;6.804;2023-11-21T10:19:19;101079.81;;;12.05;98.59
10712;BME280;5407;51.234;6.804;2023-11-21T10:21:49;101079.63;;;11.86;99.44
10712;BME280;5407;51.234;6.804;2023-11-21T10:24:17;101080.06;;;11.76;99.40
10712;BME280;5407;51.234;6.804;2023-11-21T10:26:44;101082.44;;;11.90;99.56
10712;BME280;5407;51.234;6.804;2023-11-21T10:29:15;101081.06;;;11.96;98.14
10712;BME280;5407;51.234;6.804;2023-11-21T10:31:44;101077.13;;;12.05;97.80
10712;BME280;5407;51.234;6.804;2023-11-21T10:34:13;101084.69;;;11.88;98.37
10712;BME280;5407;51.234;6.804;2023-11-21T10:36:40;101089.75;;;11.89;99.44
10712;BME280;5407;51.234;6.804;2023-11-21T10:39:08;101095.47;;;12.00;98.37
10712;BME280;5407;51.234;6.804;2023-11-21T10:41:36;101102.38;;;11.62;100.00
10712;BME280;5407;51.234;6.804;2023-11-21T10:44:03;101098.66;;;11.78;100.00
10712;BME280;5407;51.234;6.804;2023-11-21T10:46:34;101094.94;;;11.94;98.84
10712;BME280;5407;51.234;6.804;2023-11-21T10:49:02;101099.91;;;11.92;98.95
10712;BME280;5407;51.234;6.804;2023-11-21T10:51:29;101100.44;;;11.86;99.21
10712;BME280;5407;51.234;6.804;2023-11-21T10:53:56;101111.59;;;11.96;98.94
10712;BME280;5407;51.234;6.804;2023-11-21T10:56:26;101104.16;;;12.05;98.56
10712;BME280;5407;51.234;6.804;2023-11-21T10:58:56;101114.75;;;11.74;100.00
10712;BME280;5407;51.234;6.804;2023-11-21T11:01:26;101115.44;;;11.71;100.00
10712;BME280;5407;51.234;6.804;2023-11-21T11:03:56;101123.09;;;11.81;100.00
10712;BME280;5407;51.234;6.804;2023-11-21T11:06:24;101125.78;;;11.81;100.00
10712;BME280;5407;51.234;6.804;2023-11-21T11:08:53;101120.63;;;11.88;100.00
10712;BME280;5407;51.234;6.804;2023-11-21T11:11:20;101126.94;;;11.92;100.00
10712;BME280;5407;51.234;6.804;2023-11-21T11:13:47;101124.88;;;11.77;100.00
10712;BME280;5407;51.234;6.804;2023-11-21T11:16:15;101125.44;;;11.95;99.79
10712;BME280;5407;51.234;6.804;2023-11-21T11:18:43;101129.94;;;12.03;98.68
10712;BME280;5407;51.234;6.804;2023-11-21T11:21:23;101124.22;;;12.04;97.74
10712;BME280;5407;51.234;6.804;2023-11-21T11:24:01;101127.81;;;12.08;98.73
10712;BME280;5407;51.234;6.804;2023-11-21T11:26:39;101129.06;;;11.87;99.28
10712;BME280;5407;51.234;6.804;2023-11-21T11:29:16;101133.25;;;11.84;100.00
10712;BME280;5407;51.234;6.804;2023-11-21T11:31:53;101133.91;;;11.93;99.97
10712;BME280;5407;51.234;6.804;2023-11-21T11:34:28;101130.28;;;12.01;99.50
10712;BME280;5407;51.234;6.804;2023-11-21T11:37:00;101137.47;;;12.21;98.73
10712;BME280;5407;51.234;6.804;2023-11-21T11:39:30;101137.38;;;12.06;98.95
10712;BME280;5407;51.234;6.804;2023-11-21T11:41:58;101132.97;;;12.13;98.18
10712;BME280;5407;51.234;6.804;2023-11-21T11:44:48;101141.34;;;12.08;99.08
10712;BME280;5407;51.234;6.804;2023-11-21T11:47:21;101137.28;;;12.02;98.67
10712;BME280;5407;51.234;6.804;2023-11-21T11:50:00;101132.56;;;11.99;98.90
10712;BME280;5407;51.234;6.804;2023-11-21T11:52:39;101131.47;;;12.40;97.36
10712;BME280;5407;51.234;6.804;2023-11-21T11:55:07;101130.28;;;12.65;95.22
10712;BME280;5407;51.234;6.804;2023-11-21T11:57:37;101136.13;;;12.67;94.38
10712;BME280;5407;51.234;6.804;2023-11-21T12:00:10;101136.94;;;12.55;94.30
10712;BME280;5407;51.234;6.804;2023-11-21T12:02:37;101136.91;;;12.67;94.10
10712;BME280;5407;51.234;6.804;2023-11-21T12:05:09;101143.25;;;12.59;93.33
10712;BME280;5407;51.234;6.804;2023-11-21T12:07:43;101145.03;;;13.07;92.26
10712;BME280;5407;51.234;6.804;2023-11-21T12:12:57;101153.63;;;12.57;93.03
10712;BME280;5407;51.234;6.804;2023-11-21T12:15:35;101153.69;;;12.45;94.72
10712;BME280;5407;51.234;6.804;2023-11-21T12:18:04;101154.38;;;12.30;96.56
10712;BME280;5407;51.234;6.804;2023-11-21T12:20:32;101152.81;;;12.29;97.01
10712;BME280;5407;51.234;6.804;2023-11-21T12:23:05;101150.09;;;12.41;96.27
10712;BME280;5407;51.234;6.804;2023-11-21T12:25:34;101150.38;;;12.52;96.81
10712;BME280;5407;51.234;6.804;2023-11-21T12:28:08;101144.19;;;12.51;95.99
10712;BME280;5407;51.234;6.804;2023-11-21T12:30:43;101153.63;;;12.57;95.78
10712;BME280;5407;51.234;6.804;2023-11-21T12:33:14;101149.31;;;12.68;94.28
10712;BME280;5407;51.234;6.804;2023-11-21T12:35:46;101157.28;;;12.49;95.89
10712;BME280;5407;51.234;6.804;2023-11-21T12:38:17;101166.66;;;12.79;94.33
10712;BME280;5407;51.234;6.804;2023-11-21T12:40:45;101162.13;;;12.95;92.83
10712;BME280;5407;51.234;6.804;2023-11-21T12:43:12;101168.50;;;12.63;94.07
10712;BME280;5407;51.234;6.804;2023-11-21T12:45:40;101168.22;;;12.53;94.92
10712;BME280;5407;51.234;6.804;2023-11-21T12:48:09;101163.22;;;12.67;93.84
10712;BME280;5407;51.234;6.804;2023-11-21T12:50:38;101162.00;;;12.52;94.25
10712;BME280;5407;51.234;6.804;2023-11-21T12:53:12;101174.13;;;12.70;94.14
10712;BME280;5407;51.234;6.804;2023-11-21T12:55:45;101179.53;;;12.70;93.40
10712;BME280;5407;51.234;6.804;2023-11-21T12:58:24;101177.44;;;12.64;94.56
10712;BME280;5407;51.234;6.804;2023-11-21T13:00:56;101175.28;;;12.57;94.07
10712;BME280;5407;51.234;6.804;2023-11-21T13:03:29;101182.84;;;12.52;94.74
10712;BME280;5407;51.234;6.804;2023-11-21T13:05:58;101180.94;;;12.52;95.13
10712;BME280;5407;51.234;6.804;2023-11-21T13:08:26;101188.50;;;12.59;94.54
10712;BME280;5407;51.234;6.804;2023-11-21T13:10:57;101187.22;;;12.68;93.95
10712;BME280;5407;51.234;6.804;2023-11-21T13:13:24;101190.81;;;12.72;93.73
10712;BME280;5407;51.234;6.804;2023-11-21T13:15:54;101194.19;;;12.69;94.20
10712;BME280;5407;51.234;6.804;2023-11-21T13:18:22;101195.94;;;12.62;94.90
10712;BME280;5407;51.234;6.804;2023-11-21T13:20:49;101200.97;;;12.63;93.97
10712;BME280;5407;51.234;6.804;2023-11-21T13:23:16;101200.97;;;12.63;93.47
10712;BME280;5407;51.234;6.804;2023-11-21T13:25:43;101204.72;;;12.47;95.65